Arcadia — SY7849 — position and weather

sailwx.info

Track history (hours):
 
Tides and Currents Weather Stations Pressure Air Temp Water Temp Dewpoint Dewpoint Depression Visibility Wind Speed Wind Dir Waves Ship Positions

Arcadia

Last reported at 2017-Oct-19 20:47 UTC. Time now 2017-Oct-20 07:18 UTC.
Position N 37°31' E 023°35'.

Length 76 m; draft 4.8 m.

Type: Tanker. MMSI: 240560000.

Date/timePositionNaut miles runAvg speedWind from/ knotsBaromVisibWave heightAir tempDewpointWater temp
2017-Oct-19 20:47N 37°31' E 023°35'3 8.8
2017-Oct-19 20:29N 37°34' E 023°35'4 7.6
2017-Oct-19 20:00N 37°37' E 023°32'4 8.8
2017-Oct-19 19:30N 37°38' E 023°27'4 8.8
2017-Oct-19 19:00N 37°40' E 023°22'4 7.6
2017-Oct-19 18:30N 37°41' E 023°17'4 8.5
2017-Oct-19 18:00N 37°45' E 023°16'4 8.8
2017-Oct-19 17:30N 37°49' E 023°13'4 8.8
2017-Oct-19 17:00N 37°52' E 023°10'4 8.2
2017-Oct-19 16:30N 37°55' E 023°06'0 0.8
2017-Oct-19 15:59N 37°55' E 023°05'0 0.0
2017-Oct-19 15:29N 37°55' E 023°05'0 0.0
2017-Oct-19 14:59N 37°55' E 023°05'0 0.0
2017-Oct-19 14:29N 37°55' E 023°05'0 0.0
2017-Oct-19 13:59N 37°55' E 023°05'0 0.0
2017-Oct-19 13:29N 37°55' E 023°05'0 0.0
2017-Oct-19 12:59N 37°55' E 023°05'0 0.0
2017-Oct-19 12:29N 37°55' E 023°05'0 0.0
2017-Oct-19 11:59N 37°55' E 023°05'0 0.0
2017-Oct-19 11:29N 37°55' E 023°05'0 0.0
2017-Oct-19 10:59N 37°55' E 023°05'0 0.0
2017-Oct-19 10:29N 37°55' E 023°05'0 0.0
2017-Oct-19 09:59N 37°55' E 023°05'0 0.0
2017-Oct-19 09:29N 37°55' E 023°05'0 0.0
2017-Oct-19 08:59N 37°55' E 023°05'0 0.0
2017-Oct-19 07:56N 37°55' E 023°05'0 0.0
2017-Oct-19 07:29N 37°55' E 023°05'0 0.0
2017-Oct-19 06:59N 37°55' E 023°05'0 0.0
2017-Oct-19 06:29N 37°55' E 023°05'0 0.0
2017-Oct-19 05:59N 37°55' E 023°05'0 0.0
2017-Oct-19 05:29N 37°55' E 023°05'0 0.0
2017-Oct-19 04:59N 37°55' E 023°05'0 0.0
2017-Oct-19 04:29N 37°55' E 023°05'0 0.0
2017-Oct-19 03:59N 37°55' E 023°05'0 0.0
2017-Oct-19 03:29N 37°55' E 023°05'0 0.0
2017-Oct-19 02:59N 37°55' E 023°05'0 0.0
2017-Oct-19 02:29N 37°55' E 023°05'0 0.0
2017-Oct-19 01:59N 37°55' E 023°05'0 0.0
2017-Oct-19 01:29N 37°55' E 023°05'0 0.0
2017-Oct-19 00:59N 37°55' E 023°05'0 0.0
2017-Oct-19 00:29N 37°55' E 023°05'0 0.0
2017-Oct-18 23:59N 37°55' E 023°05'0 0.0
2017-Oct-18 23:29N 37°55' E 023°05'0 0.0
2017-Oct-18 22:59N 37°55' E 023°05'0 0.0
2017-Oct-18 22:29N 37°55' E 023°05'0 0.0
2017-Oct-18 21:59N 37°55' E 023°05'0 0.0
2017-Oct-18 21:29N 37°55' E 023°05'0 0.0
2017-Oct-18 20:59N 37°55' E 023°05'0 0.0
2017-Oct-18 20:29N 37°55' E 023°05'0 0.0
2017-Oct-18 19:59N 37°55' E 023°05'0 0.0
2017-Oct-18 19:29N 37°55' E 023°05'0 0.0
2017-Oct-18 18:59N 37°55' E 023°05'0 0.0
2017-Oct-18 18:29N 37°55' E 023°05'0 0.0
2017-Oct-18 17:59N 37°55' E 023°05'0 0.0
2017-Oct-18 17:29N 37°55' E 023°05'0 0.0
2017-Oct-18 16:59N 37°55' E 023°05'0 0.3
2017-Oct-18 16:30N 37°55' E 023°05'0 0.5
2017-Oct-18 16:00N 37°55' E 023°05'1 1.2
2017-Oct-18 15:30N 37°55' E 023°06'0 0.1
2017-Oct-18 15:00N 37°55' E 023°06'0 0.0
2017-Oct-18 14:00N 37°55' E 023°06'0 0.0
2017-Oct-18 13:30N 37°55' E 023°06'0 0.0
2017-Oct-18 13:00N 37°55' E 023°06'0 0.0
2017-Oct-18 12:30N 37°55' E 023°06'0 0.0
2017-Oct-18 12:00N 37°55' E 023°06'0 0.0
2017-Oct-18 11:27N 37°55' E 023°06'0 0.0
2017-Oct-18 11:00N 37°55' E 023°06'0 0.4
2017-Oct-18 10:31N 37°55' E 023°06'3 5.7
2017-Oct-18 10:01N 37°53' E 023°09'5 9.4
2017-Oct-18 09:30N 37°49' E 023°13'8 9.3
2017-Oct-18 08:38N 37°42' E 023°18'2 7.5
2017-Oct-18 08:19N 37°40' E 023°19'9 9.1
2017-Oct-18 07:22N 37°38' E 023°29'4 9.0
2017-Oct-18 06:58N 37°37' E 023°34'  
2017-Oct-13 20:02N 37°38' E 023°31'1 9.1
2017-Oct-13 19:58N 37°38' E 023°30'21 7.7
2017-Oct-13 17:11N 37°52' E 023°10'2 8.8
2017-Oct-13 17:00N 37°53' E 023°08'3 5.9
2017-Oct-13 16:30N 37°55' E 023°05'0 0.0
2017-Oct-13 16:00N 37°55' E 023°05'0 0.0
2017-Oct-13 15:30N 37°55' E 023°05'0 0.0
2017-Oct-13 15:00N 37°55' E 023°05'0 0.0
2017-Oct-13 14:30N 37°55' E 023°05'0 0.0
2017-Oct-13 14:00N 37°55' E 023°05'0 0.0
2017-Oct-13 13:30N 37°55' E 023°05'0 0.0
2017-Oct-13 13:00N 37°55' E 023°05'0 0.0
2017-Oct-13 12:30N 37°55' E 023°05'0 0.0
2017-Oct-13 12:00N 37°55' E 023°05'0 0.0
2017-Oct-13 11:30N 37°55' E 023°05'0 0.0
2017-Oct-13 11:00N 37°55' E 023°05'0 0.0
2017-Oct-13 10:30N 37°55' E 023°05'0 0.0
2017-Oct-13 10:00N 37°55' E 023°05'0 0.0
2017-Oct-13 09:30N 37°55' E 023°05'0 0.0
2017-Oct-13 09:00N 37°55' E 023°05'0 0.0
2017-Oct-13 08:30N 37°55' E 023°05'0 0.0
2017-Oct-13 08:00N 37°55' E 023°05'0 0.0
2017-Oct-13 07:30N 37°55' E 023°05'0 0.0
2017-Oct-13 07:00N 37°55' E 023°05'0 0.0
2017-Oct-13 06:30N 37°55' E 023°05'0 0.0
2017-Oct-13 06:00N 37°55' E 023°05'0 0.0
2017-Oct-13 05:30N 37°55' E 023°05'0 0.0
2017-Oct-13 05:00N 37°55' E 023°05'0 0.0
2017-Oct-13 04:30N 37°55' E 023°05'0 0.0
2017-Oct-13 04:00N 37°55' E 023°05'0 0.0
2017-Oct-13 03:30N 37°55' E 023°05'0 0.0
2017-Oct-13 03:00N 37°55' E 023°05'0 0.0
2017-Oct-13 02:30N 37°55' E 023°05'0 0.0
2017-Oct-13 02:00N 37°55' E 023°05'0 0.0
2017-Oct-13 01:30N 37°55' E 023°05'0 0.0
2017-Oct-13 01:00N 37°55' E 023°05'0 0.0
2017-Oct-13 00:30N 37°55' E 023°05'0 0.0
2017-Oct-13 00:00N 37°55' E 023°05'0 0.0
2017-Oct-12 23:30N 37°55' E 023°05'0 0.0
2017-Oct-12 23:00N 37°55' E 023°05'0 0.0
2017-Oct-12 22:30N 37°55' E 023°05'0 0.0
2017-Oct-12 22:00N 37°55' E 023°05'0 0.0
2017-Oct-12 21:30N 37°55' E 023°05'0 0.0
2017-Oct-12 21:00N 37°55' E 023°05'0 0.0
2017-Oct-12 20:30N 37°55' E 023°05'0 0.0
2017-Oct-12 20:00N 37°55' E 023°05'0 0.0
2017-Oct-12 19:30N 37°55' E 023°05'0 0.0
2017-Oct-12 19:00N 37°55' E 023°05'0 0.0
2017-Oct-12 18:30N 37°55' E 023°05'0 0.0
2017-Oct-12 18:00N 37°55' E 023°05'0 0.4
2017-Oct-12 17:30N 37°55' E 023°06'1 1.7
2017-Oct-12 17:00N 37°54' E 023°06'1 1.3
2017-Oct-12 16:31N 37°54' E 023°06'0 0.4
2017-Oct-12 16:00N 37°54' E 023°06'1 2.1
2017-Oct-12 15:30N 37°54' E 023°07'4 8.6
2017-Oct-12 15:00N 37°51' E 023°11'10 9.5
2017-Oct-12 14:00N 37°43' E 023°17'6 7.7
2017-Oct-12 13:10N 37°39' E 023°24'4 9.1
2017-Oct-12 12:46N 37°38' E 023°28'5 9.0
2017-Oct-12 12:13N 37°36' E 023°34'4 0.1
2017-Oct-10 14:58N 37°38' E 023°30'21 7.6
2017-Oct-10 12:09N 37°52' E 023°10'1 8.4
2017-Oct-10 12:00N 37°53' E 023°09'3 6.6
2017-Oct-10 11:30N 37°55' E 023°05'0 0.0
2017-Oct-10 11:00N 37°55' E 023°05'0 0.0
2017-Oct-10 10:30N 37°55' E 023°05'0 0.0
2017-Oct-10 10:00N 37°55' E 023°05'0 0.0
2017-Oct-10 09:30N 37°55' E 023°05'0 0.0
2017-Oct-10 09:00N 37°55' E 023°05'0 0.0
2017-Oct-10 08:30N 37°55' E 023°05'0 0.0
2017-Oct-10 08:00N 37°55' E 023°05'0 0.0
2017-Oct-10 07:30N 37°55' E 023°05'0 0.0
2017-Oct-10 07:00N 37°55' E 023°05'0 0.0
2017-Oct-10 06:30N 37°55' E 023°05'0 0.0
2017-Oct-10 06:00N 37°55' E 023°05'0 0.0
2017-Oct-10 05:30N 37°55' E 023°05'0 0.0
2017-Oct-10 05:00N 37°55' E 023°05'0 0.0
2017-Oct-10 04:30N 37°55' E 023°05'0 0.0
2017-Oct-10 04:00N 37°55' E 023°05'0 0.0
2017-Oct-10 03:30N 37°55' E 023°05'0 0.0
2017-Oct-10 03:00N 37°55' E 023°05'0 0.0
2017-Oct-10 02:30N 37°55' E 023°05'0 0.0
2017-Oct-10 02:00N 37°55' E 023°05'0 0.0
2017-Oct-10 01:30N 37°55' E 023°05'0 0.0
2017-Oct-10 01:00N 37°55' E 023°05'0 0.0
2017-Oct-10 00:30N 37°55' E 023°05'0 0.0
2017-Oct-10 00:00N 37°55' E 023°05'0 0.0
2017-Oct-09 23:30N 37°55' E 023°05'0 0.0
2017-Oct-09 23:00N 37°55' E 023°05'0 0.0
2017-Oct-09 22:30N 37°55' E 023°05'0 0.0
2017-Oct-09 22:00N 37°55' E 023°05'0 0.0
2017-Oct-09 21:30N 37°55' E 023°05'0 0.0
2017-Oct-09 21:00N 37°55' E 023°05'  
Track history (hours):
 
Tides and Currents Weather Stations Pressure Air Temp Water Temp Dewpoint Dewpoint Depression Visibility Wind Speed Wind Dir Waves Ship Positions

Arcadia

Last reported at 2017-Oct-19 20:47 UTC. Time now 2017-Oct-20 07:18 UTC.
Position N 37°31' E 023°35'.

Length 76 m; draft 4.8 m.

Type: Tanker. MMSI: 240560000.

Date/timePositionNaut miles runAvg speedWind from/ knotsBaromVisibWave heightAir tempDewpointWater temp
2017-Oct-19 20:47N 37°31' E 023°35'3 8.8
2017-Oct-19 20:29N 37°34' E 023°35'4 7.6
2017-Oct-19 20:00N 37°37' E 023°32'4 8.8
2017-Oct-19 19:30N 37°38' E 023°27'4 8.8
2017-Oct-19 19:00N 37°40' E 023°22'4 7.6
2017-Oct-19 18:30N 37°41' E 023°17'4 8.5
2017-Oct-19 18:00N 37°45' E 023°16'4 8.8
2017-Oct-19 17:30N 37°49' E 023°13'4 8.8
2017-Oct-19 17:00N 37°52' E 023°10'4 8.2
2017-Oct-19 16:30N 37°55' E 023°06'0 0.8
2017-Oct-19 15:59N 37°55' E 023°05'0 0.0
2017-Oct-19 15:29N 37°55' E 023°05'0 0.0
2017-Oct-19 14:59N 37°55' E 023°05'0 0.0
2017-Oct-19 14:29N 37°55' E 023°05'0 0.0
2017-Oct-19 13:59N 37°55' E 023°05'0 0.0
2017-Oct-19 13:29N 37°55' E 023°05'0 0.0
2017-Oct-19 12:59N 37°55' E 023°05'0 0.0
2017-Oct-19 12:29N 37°55' E 023°05'0 0.0
2017-Oct-19 11:59N 37°55' E 023°05'0 0.0
2017-Oct-19 11:29N 37°55' E 023°05'0 0.0
2017-Oct-19 10:59N 37°55' E 023°05'0 0.0
2017-Oct-19 10:29N 37°55' E 023°05'0 0.0
2017-Oct-19 09:59N 37°55' E 023°05'0 0.0
2017-Oct-19 09:29N 37°55' E 023°05'0 0.0
2017-Oct-19 08:59N 37°55' E 023°05'0 0.0
2017-Oct-19 07:56N 37°55' E 023°05'0 0.0
2017-Oct-19 07:29N 37°55' E 023°05'0 0.0
2017-Oct-19 06:59N 37°55' E 023°05'0 0.0
2017-Oct-19 06:29N 37°55' E 023°05'0 0.0
2017-Oct-19 05:59N 37°55' E 023°05'0 0.0
2017-Oct-19 05:29N 37°55' E 023°05'0 0.0
2017-Oct-19 04:59N 37°55' E 023°05'0 0.0
2017-Oct-19 04:29N 37°55' E 023°05'0 0.0
2017-Oct-19 03:59N 37°55' E 023°05'0 0.0
2017-Oct-19 03:29N 37°55' E 023°05'0 0.0
2017-Oct-19 02:59N 37°55' E 023°05'0 0.0
2017-Oct-19 02:29N 37°55' E 023°05'0 0.0
2017-Oct-19 01:59N 37°55' E 023°05'0 0.0
2017-Oct-19 01:29N 37°55' E 023°05'0 0.0
2017-Oct-19 00:59N 37°55' E 023°05'0 0.0
2017-Oct-19 00:29N 37°55' E 023°05'0 0.0
2017-Oct-18 23:59N 37°55' E 023°05'0 0.0
2017-Oct-18 23:29N 37°55' E 023°05'0 0.0
2017-Oct-18 22:59N 37°55' E 023°05'0 0.0
2017-Oct-18 22:29N 37°55' E 023°05'0 0.0
2017-Oct-18 21:59N 37°55' E 023°05'0 0.0
2017-Oct-18 21:29N 37°55' E 023°05'0 0.0
2017-Oct-18 20:59N 37°55' E 023°05'0 0.0
2017-Oct-18 20:29N 37°55' E 023°05'0 0.0
2017-Oct-18 19:59N 37°55' E 023°05'0 0.0
2017-Oct-18 19:29N 37°55' E 023°05'0 0.0
2017-Oct-18 18:59N 37°55' E 023°05'0 0.0
2017-Oct-18 18:29N 37°55' E 023°05'0 0.0
2017-Oct-18 17:59N 37°55' E 023°05'0 0.0
2017-Oct-18 17:29N 37°55' E 023°05'0 0.0
2017-Oct-18 16:59N 37°55' E 023°05'0 0.3
2017-Oct-18 16:30N 37°55' E 023°05'0 0.5
2017-Oct-18 16:00N 37°55' E 023°05'1 1.2
2017-Oct-18 15:30N 37°55' E 023°06'0 0.1
2017-Oct-18 15:00N 37°55' E 023°06'0 0.0
2017-Oct-18 14:00N 37°55' E 023°06'0 0.0
2017-Oct-18 13:30N 37°55' E 023°06'0 0.0
2017-Oct-18 13:00N 37°55' E 023°06'0 0.0
2017-Oct-18 12:30N 37°55' E 023°06'0 0.0
2017-Oct-18 12:00N 37°55' E 023°06'0 0.0
2017-Oct-18 11:27N 37°55' E 023°06'0 0.0
2017-Oct-18 11:00N 37°55' E 023°06'0 0.4
2017-Oct-18 10:31N 37°55' E 023°06'3 5.7
2017-Oct-18 10:01N 37°53' E 023°09'5 9.4
2017-Oct-18 09:30N 37°49' E 023°13'8 9.3
2017-Oct-18 08:38N 37°42' E 023°18'2 7.5
2017-Oct-18 08:19N 37°40' E 023°19'9 9.1
2017-Oct-18 07:22N 37°38' E 023°29'4 9.0
2017-Oct-18 06:58N 37°37' E 023°34'  
2017-Oct-13 20:02N 37°38' E 023°31'1 9.1
2017-Oct-13 19:58N 37°38' E 023°30'21 7.7
2017-Oct-13 17:11N 37°52' E 023°10'2 8.8
2017-Oct-13 17:00N 37°53' E 023°08'3 5.9
2017-Oct-13 16:30N 37°55' E 023°05'0 0.0
2017-Oct-13 16:00N 37°55' E 023°05'0 0.0
2017-Oct-13 15:30N 37°55' E 023°05'0 0.0
2017-Oct-13 15:00N 37°55' E 023°05'0 0.0
2017-Oct-13 14:30N 37°55' E 023°05'0 0.0
2017-Oct-13 14:00N 37°55' E 023°05'0 0.0
2017-Oct-13 13:30N 37°55' E 023°05'0 0.0
2017-Oct-13 13:00N 37°55' E 023°05'0 0.0
2017-Oct-13 12:30N 37°55' E 023°05'0 0.0
2017-Oct-13 12:00N 37°55' E 023°05'0 0.0
2017-Oct-13 11:30N 37°55' E 023°05'0 0.0
2017-Oct-13 11:00N 37°55' E 023°05'0 0.0
2017-Oct-13 10:30N 37°55' E 023°05'0 0.0
2017-Oct-13 10:00N 37°55' E 023°05'0 0.0
2017-Oct-13 09:30N 37°55' E 023°05'0 0.0
2017-Oct-13 09:00N 37°55' E 023°05'0 0.0
2017-Oct-13 08:30N 37°55' E 023°05'0 0.0
2017-Oct-13 08:00N 37°55' E 023°05'0 0.0
2017-Oct-13 07:30N 37°55' E 023°05'0 0.0
2017-Oct-13 07:00N 37°55' E 023°05'0 0.0
2017-Oct-13 06:30N 37°55' E 023°05'0 0.0
2017-Oct-13 06:00N 37°55' E 023°05'0 0.0
2017-Oct-13 05:30N 37°55' E 023°05'0 0.0
2017-Oct-13 05:00N 37°55' E 023°05'0 0.0
2017-Oct-13 04:30N 37°55' E 023°05'0 0.0
2017-Oct-13 04:00N 37°55' E 023°05'0 0.0
2017-Oct-13 03:30N 37°55' E 023°05'0 0.0
2017-Oct-13 03:00N 37°55' E 023°05'0 0.0
2017-Oct-13 02:30N 37°55' E 023°05'0 0.0
2017-Oct-13 02:00N 37°55' E 023°05'0 0.0
2017-Oct-13 01:30N 37°55' E 023°05'0 0.0
2017-Oct-13 01:00N 37°55' E 023°05'0 0.0
2017-Oct-13 00:30N 37°55' E 023°05'0 0.0
2017-Oct-13 00:00N 37°55' E 023°05'0 0.0
2017-Oct-12 23:30N 37°55' E 023°05'0 0.0
2017-Oct-12 23:00N 37°55' E 023°05'0 0.0
2017-Oct-12 22:30N 37°55' E 023°05'0 0.0
2017-Oct-12 22:00N 37°55' E 023°05'0 0.0
2017-Oct-12 21:30N 37°55' E 023°05'0 0.0
2017-Oct-12 21:00N 37°55' E 023°05'0 0.0
2017-Oct-12 20:30N 37°55' E 023°05'0 0.0
2017-Oct-12 20:00N 37°55' E 023°05'0 0.0
2017-Oct-12 19:30N 37°55' E 023°05'0 0.0
2017-Oct-12 19:00N 37°55' E 023°05'0 0.0
2017-Oct-12 18:30N 37°55' E 023°05'0 0.0
2017-Oct-12 18:00N 37°55' E 023°05'0 0.4
2017-Oct-12 17:30N 37°55' E 023°06'1 1.7
2017-Oct-12 17:00N 37°54' E 023°06'1 1.3
2017-Oct-12 16:31N 37°54' E 023°06'0 0.4
2017-Oct-12 16:00N 37°54' E 023°06'1 2.1
2017-Oct-12 15:30N 37°54' E 023°07'4 8.6
2017-Oct-12 15:00N 37°51' E 023°11'10 9.5
2017-Oct-12 14:00N 37°43' E 023°17'6 7.7
2017-Oct-12 13:10N 37°39' E 023°24'4 9.1
2017-Oct-12 12:46N 37°38' E 023°28'5 9.0
2017-Oct-12 12:13N 37°36' E 023°34'4 0.1
2017-Oct-10 14:58N 37°38' E 023°30'21 7.6
2017-Oct-10 12:09N 37°52' E 023°10'1 8.4
2017-Oct-10 12:00N 37°53' E 023°09'3 6.6
2017-Oct-10 11:30N 37°55' E 023°05'0 0.0
2017-Oct-10 11:00N 37°55' E 023°05'0 0.0
2017-Oct-10 10:30N 37°55' E 023°05'0 0.0
2017-Oct-10 10:00N 37°55' E 023°05'0 0.0
2017-Oct-10 09:30N 37°55' E 023°05'0 0.0
2017-Oct-10 09:00N 37°55' E 023°05'0 0.0
2017-Oct-10 08:30N 37°55' E 023°05'0 0.0
2017-Oct-10 08:00N 37°55' E 023°05'0 0.0
2017-Oct-10 07:30N 37°55' E 023°05'0 0.0
2017-Oct-10 07:00N 37°55' E 023°05'0 0.0
2017-Oct-10 06:30N 37°55' E 023°05'0 0.0
2017-Oct-10 06:00N 37°55' E 023°05'0 0.0
2017-Oct-10 05:30N 37°55' E 023°05'0 0.0
2017-Oct-10 05:00N 37°55' E 023°05'0 0.0
2017-Oct-10 04:30N 37°55' E 023°05'0 0.0
2017-Oct-10 04:00N 37°55' E 023°05'0 0.0
2017-Oct-10 03:30N 37°55' E 023°05'0 0.0
2017-Oct-10 03:00N 37°55' E 023°05'0 0.0
2017-Oct-10 02:30N 37°55' E 023°05'0 0.0
2017-Oct-10 02:00N 37°55' E 023°05'0 0.0
2017-Oct-10 01:30N 37°55' E 023°05'0 0.0
2017-Oct-10 01:00N 37°55' E 023°05'0 0.0
2017-Oct-10 00:30N 37°55' E 023°05'0 0.0
2017-Oct-10 00:00N 37°55' E 023°05'0 0.0
2017-Oct-09 23:30N 37°55' E 023°05'0 0.0
2017-Oct-09 23:00N 37°55' E 023°05'0 0.0
2017-Oct-09 22:30N 37°55' E 023°05'0 0.0
2017-Oct-09 22:00N 37°55' E 023°05'0 0.0
2017-Oct-09 21:30N 37°55' E 023°05'0 0.0
2017-Oct-09 21:00N 37°55' E 023°05'  

Dump ship's entire track history